Terminal Aerodrome Forecast
Issued by NWS

Current Version | Previous Version | Graphics & Text | Print | Product List | Glossary On
Versions: 1 2 3 4 5 6 7 8 9 10 11 12 13 14
000
FTUS41 KPBZ 191720
TAFMGW
TAF
KMGW 191720Z 1918/2018 23008KT P6SM SCT030 BKN080
     FM192200 25010KT P6SM VCTS BKN040CB
     FM200100 28005KT P6SM SCT040
     FM201000 00000KT 5SM BR SCT015
     FM201400 VRB04KT P6SM SKC=

USA.gov is the U.S. government's official web portal to all federal, state and local government web resources and services.